sensor_id;sensor_type;location;lat;lon;timestamp;pressure;altitude;pressure_sealevel;temperature;humidity
66689;BME280;53587;59.318;18.084;2023-07-16T00:02:22;101135.03;;;20.65;64.27
66689;BME280;53587;59.318;18.084;2023-07-16T00:04:47;101144.94;;;20.71;64.37
66689;BME280;53587;59.318;18.084;2023-07-16T00:07:12;101140.41;;;20.81;64.24
66689;BME280;53587;59.318;18.084;2023-07-16T00:09:37;101132.31;;;20.84;63.98
66689;BME280;53587;59.318;18.084;2023-07-16T00:12:03;101125.03;;;20.88;64.00
66689;BME280;53587;59.318;18.084;2023-07-16T00:14:28;101121.69;;;20.91;63.16
66689;BME280;53587;59.318;18.084;2023-07-16T00:16:53;101119.94;;;20.96;63.41
66689;BME280;53587;59.318;18.084;2023-07-16T00:19:19;101121.28;;;20.98;63.64
66689;BME280;53587;59.318;18.084;2023-07-16T00:21:44;101122.31;;;21.02;63.50
66689;BME280;53587;59.318;18.084;2023-07-16T00:24:09;101117.00;;;21.06;63.10
66689;BME280;53587;59.318;18.084;2023-07-16T00:26:34;101107.34;;;21.03;62.95
66689;BME280;53587;59.318;18.084;2023-07-16T00:28:59;101110.94;;;20.47;62.80
66689;BME280;53587;59.318;18.084;2023-07-16T00:31:25;101115.03;;;19.87;64.93
66689;BME280;53587;59.318;18.084;2023-07-16T00:33:50;101113.22;;;19.47;65.80
66689;BME280;53587;59.318;18.084;2023-07-16T00:36:15;101106.28;;;19.21;67.63
66689;BME280;53587;59.318;18.084;2023-07-16T00:38:40;101102.34;;;19.56;67.84
66689;BME280;53587;59.318;18.084;2023-07-16T00:41:06;101099.25;;;19.87;67.67
66689;BME280;53587;59.318;18.084;2023-07-16T00:43:32;101093.19;;;20.09;66.59
66689;BME280;53587;59.318;18.084;2023-07-16T00:45:57;101084.69;;;20.25;66.33
66689;BME280;53587;59.318;18.084;2023-07-16T00:48:22;101086.69;;;20.38;65.19
66689;BME280;53587;59.318;18.084;2023-07-16T00:50:48;101078.78;;;20.51;65.12
66689;BME280;53587;59.318;18.084;2023-07-16T00:53:13;101093.59;;;20.60;64.64
66689;BME280;53587;59.318;18.084;2023-07-16T00:55:38;101084.06;;;20.66;64.60
66689;BME280;53587;59.318;18.084;2023-07-16T00:58:06;101077.06;;;20.74;64.51
66689;BME280;53587;59.318;18.084;2023-07-16T01:00:32;101070.63;;;20.79;64.12
66689;BME280;53587;59.318;18.084;2023-07-16T01:02:57;101076.06;;;20.84;64.29
66689;BME280;53587;59.318;18.084;2023-07-16T01:05:23;101070.16;;;20.90;63.99
66689;BME280;53587;59.318;18.084;2023-07-16T01:07:59;101063.19;;;20.93;63.30
66689;BME280;53587;59.318;18.084;2023-07-16T01:10:26;101061.44;;;20.97;63.42
66689;BME280;53587;59.318;18.084;2023-07-16T01:12:53;101055.59;;;20.99;63.49
66689;BME280;53587;59.318;18.084;2023-07-16T01:15:19;101066.09;;;21.02;63.37
66689;BME280;53587;59.318;18.084;2023-07-16T01:17:44;101055.22;;;21.05;63.14
66689;BME280;53587;59.318;18.084;2023-07-16T01:20:10;101057.41;;;20.70;62.82
66689;BME280;53587;59.318;18.084;2023-07-16T01:22:43;101046.31;;;19.99;63.98
66689;BME280;53587;59.318;18.084;2023-07-16T01:25:20;101034.28;;;19.60;65.37
66689;BME280;53587;59.318;18.084;2023-07-16T01:27:58;101028.91;;;19.21;66.66
66689;BME280;53587;59.318;18.084;2023-07-16T01:30:24;101019.78;;;19.50;69.06
66689;BME280;53587;59.318;18.084;2023-07-16T01:32:51;101034.03;;;19.81;67.83
66689;BME280;53587;59.318;18.084;2023-07-16T01:35:17;101044.56;;;20.03;67.33
66689;BME280;53587;59.318;18.084;2023-07-16T01:37:42;101040.69;;;20.23;65.95
66689;BME280;53587;59.318;18.084;2023-07-16T01:40:08;101044.38;;;20.38;65.93
66689;BME280;53587;59.318;18.084;2023-07-16T01:42:36;101041.16;;;20.50;65.11
66689;BME280;53587;59.318;18.084;2023-07-16T01:45:01;101042.09;;;20.59;64.99
66689;BME280;53587;59.318;18.084;2023-07-16T01:47:49;101043.34;;;20.67;64.61
66689;BME280;53587;59.318;18.084;2023-07-16T01:50:18;101046.31;;;20.75;64.64
66689;BME280;53587;59.318;18.084;2023-07-16T01:52:44;101035.75;;;20.78;64.09
66689;BME280;53587;59.318;18.084;2023-07-16T01:55:09;101031.75;;;20.84;64.48
66689;BME280;53587;59.318;18.084;2023-07-16T01:57:34;101034.44;;;20.89;63.94
66689;BME280;53587;59.318;18.084;2023-07-16T01:59:59;101034.38;;;20.94;64.10
66689;BME280;53587;59.318;18.084;2023-07-16T02:02:24;101034.88;;;20.96;63.67
66689;BME280;53587;59.318;18.084;2023-07-16T02:04:49;101035.41;;;20.98;63.62
66689;BME280;53587;59.318;18.084;2023-07-16T02:07:15;101024.84;;;21.00;63.56
66689;BME280;53587;59.318;18.084;2023-07-16T02:09:40;101033.06;;;21.05;63.70
66689;BME280;53587;59.318;18.084;2023-07-16T02:12:05;101028.53;;;20.96;63.30
66689;BME280;53587;59.318;18.084;2023-07-16T02:14:31;101028.72;;;20.28;63.36
66689;BME280;53587;59.318;18.084;2023-07-16T02:16:56;101032.69;;;19.78;65.19
66689;BME280;53587;59.318;18.084;2023-07-16T02:19:21;101034.28;;;19.36;65.81
66689;BME280;53587;59.318;18.084;2023-07-16T02:21:46;101039.34;;;19.29;67.18
66689;BME280;53587;59.318;18.084;2023-07-16T02:24:11;101029.84;;;19.65;68.14
66689;BME280;53587;59.318;18.084;2023-07-16T02:26:37;101023.72;;;19.92;67.41
66689;BME280;53587;59.318;18.084;2023-07-16T02:29:02;101015.63;;;20.15;66.12
66689;BME280;53587;59.318;18.084;2023-07-16T02:31:27;101018.69;;;20.32;65.76
66689;BME280;53587;59.318;18.084;2023-07-16T02:33:52;101008.84;;;20.45;65.42
66689;BME280;53587;59.318;18.084;2023-07-16T02:36:17;100995.13;;;20.54;65.45
66689;BME280;53587;59.318;18.084;2023-07-16T02:38:43;100982.25;;;20.63;65.18
66689;BME280;53587;59.318;18.084;2023-07-16T02:41:08;100993.75;;;20.70;64.78
66689;BME280;53587;59.318;18.084;2023-07-16T02:43:33;100983.75;;;20.74;64.41
66689;BME280;53587;59.318;18.084;2023-07-16T02:45:58;100985.81;;;20.83;64.28
66689;BME280;53587;59.318;18.084;2023-07-16T02:48:23;100975.78;;;20.87;64.04
66689;BME280;53587;59.318;18.084;2023-07-16T02:50:49;100984.00;;;20.92;63.44
66689;BME280;53587;59.318;18.084;2023-07-16T02:53:14;100988.09;;;20.95;63.64
66689;BME280;53587;59.318;18.084;2023-07-16T02:55:39;100988.31;;;20.98;63.56
66689;BME280;53587;59.318;18.084;2023-07-16T02:58:04;100989.34;;;21.02;63.49
66689;BME280;53587;59.318;18.084;2023-07-16T03:00:33;100982.66;;;21.03;63.16
66689;BME280;53587;59.318;18.084;2023-07-16T03:02:58;100981.84;;;21.03;63.52
66689;BME280;53587;59.318;18.084;2023-07-16T03:05:25;100989.00;;;20.57;63.12
66689;BME280;53587;59.318;18.084;2023-07-16T03:07:50;100990.38;;;20.02;63.88
66689;BME280;53587;59.318;18.084;2023-07-16T03:10:15;100996.41;;;19.61;64.96
66689;BME280;53587;59.318;18.084;2023-07-16T03:12:40;100991.84;;;19.27;66.50
66689;BME280;53587;59.318;18.084;2023-07-16T03:15:06;100987.06;;;19.57;68.30
66689;BME280;53587;59.318;18.084;2023-07-16T03:17:31;100990.88;;;19.85;68.18
66689;BME280;53587;59.318;18.084;2023-07-16T03:19:56;100981.19;;;20.07;66.63
66689;BME280;53587;59.318;18.084;2023-07-16T03:22:21;100972.03;;;20.25;66.16
66689;BME280;53587;59.318;18.084;2023-07-16T03:24:47;100973.75;;;20.40;65.61
66689;BME280;53587;59.318;18.084;2023-07-16T03:27:12;100969.69;;;20.52;65.79
66689;BME280;53587;59.318;18.084;2023-07-16T03:29:37;100964.59;;;20.59;65.16
66689;BME280;53587;59.318;18.084;2023-07-16T03:32:02;100974.34;;;20.70;64.70
66689;BME280;53587;59.318;18.084;2023-07-16T03:34:28;100982.31;;;20.77;64.28
66689;BME280;53587;59.318;18.084;2023-07-16T03:36:53;100968.38;;;20.82;64.33
66689;BME280;53587;59.318;18.084;2023-07-16T03:39:18;100973.00;;;20.87;64.40
66689;BME280;53587;59.318;18.084;2023-07-16T03:41:43;100967.38;;;20.92;63.69
66689;BME280;53587;59.318;18.084;2023-07-16T03:44:09;100952.09;;;20.95;63.96
66689;BME280;53587;59.318;18.084;2023-07-16T03:46:34;100955.06;;;20.98;63.77
66689;BME280;53587;59.318;18.084;2023-07-16T03:48:59;100938.97;;;21.00;63.58
66689;BME280;53587;59.318;18.084;2023-07-16T03:51:24;100955.28;;;21.02;63.15
66689;BME280;53587;59.318;18.084;2023-07-16T03:53:49;100934.97;;;21.06;63.28
66689;BME280;53587;59.318;18.084;2023-07-16T03:56:15;100936.19;;;21.00;63.56
66689;BME280;53587;59.318;18.084;2023-07-16T03:58:40;100912.06;;;20.40;63.40
66689;BME280;53587;59.318;18.084;2023-07-16T04:01:05;100909.19;;;19.93;64.39
66689;BME280;53587;59.318;18.084;2023-07-16T04:03:30;100905.84;;;19.53;64.76
66689;BME280;53587;59.318;18.084;2023-07-16T04:06:05;100897.91;;;19.27;67.59
66689;BME280;53587;59.318;18.084;2023-07-16T04:08:31;100893.03;;;19.62;68.35
66689;BME280;53587;59.318;18.084;2023-07-16T04:10:56;100882.13;;;19.90;67.88
66689;BME280;53587;59.318;18.084;2023-07-16T04:13:21;100869.63;;;20.11;66.54
66689;BME280;53587;59.318;18.084;2023-07-16T04:15:46;100864.66;;;20.27;66.65
66689;BME280;53587;59.318;18.084;2023-07-16T04:18:12;100856.38;;;20.41;65.73
66689;BME280;53587;59.318;18.084;2023-07-16T04:20:37;100844.00;;;20.53;65.73
66689;BME280;53587;59.318;18.084;2023-07-16T04:23:02;100837.75;;;20.61;65.13
66689;BME280;53587;59.318;18.084;2023-07-16T04:25:27;100813.25;;;20.68;65.04
66689;BME280;53587;59.318;18.084;2023-07-16T04:27:53;100821.50;;;20.73;64.86
66689;BME280;53587;59.318;18.084;2023-07-16T04:30:18;100809.19;;;20.80;64.42
66689;BME280;53587;59.318;18.084;2023-07-16T04:32:43;100796.34;;;20.84;64.47
66689;BME280;53587;59.318;18.084;2023-07-16T04:35:08;100792.97;;;20.87;64.08
66689;BME280;53587;59.318;18.084;2023-07-16T04:37:33;100789.28;;;20.91;64.28
66689;BME280;53587;59.318;18.084;2023-07-16T04:39:59;100791.41;;;20.95;64.28
66689;BME280;53587;59.318;18.084;2023-07-16T04:42:24;100776.97;;;20.98;64.09
66689;BME280;53587;59.318;18.084;2023-07-16T04:44:49;100783.50;;;21.02;63.89
66689;BME280;53587;59.318;18.084;2023-07-16T04:47:14;100776.53;;;21.04;63.68
66689;BME280;53587;59.318;18.084;2023-07-16T04:49:39;100777.06;;;21.06;63.54
66689;BME280;53587;59.318;18.084;2023-07-16T04:52:05;100755.25;;;20.77;63.58
66689;BME280;53587;59.318;18.084;2023-07-16T04:54:34;100749.63;;;20.07;65.03
66689;BME280;53587;59.318;18.084;2023-07-16T04:57:00;100742.03;;;19.66;66.22
66689;BME280;53587;59.318;18.084;2023-07-16T04:59:25;100741.03;;;19.24;66.25
66689;BME280;53587;59.318;18.084;2023-07-16T05:01:50;100740.34;;;19.32;69.09
66689;BME280;53587;59.318;18.084;2023-07-16T05:04:15;100734.84;;;19.65;69.30
66689;BME280;53587;59.318;18.084;2023-07-16T05:06:40;100736.63;;;19.94;67.77
66689;BME280;53587;59.318;18.084;2023-07-16T05:09:05;100725.16;;;20.15;67.86
66689;BME280;53587;59.318;18.084;2023-07-16T05:11:31;100715.44;;;20.31;67.03
66689;BME280;53587;59.318;18.084;2023-07-16T05:13:58;100707.44;;;20.43;66.79
66689;BME280;53587;59.318;18.084;2023-07-16T05:16:23;100706.44;;;20.53;66.48
66689;BME280;53587;59.318;18.084;2023-07-16T05:18:48;100690.41;;;20.64;65.80
66689;BME280;53587;59.318;18.084;2023-07-16T05:21:13;100674.22;;;20.71;65.76
66689;BME280;53587;59.318;18.084;2023-07-16T05:23:39;100672.16;;;20.77;65.92
66689;BME280;53587;59.318;18.084;2023-07-16T05:26:04;100664.53;;;20.83;65.42
66689;BME280;53587;59.318;18.084;2023-07-16T05:28:29;100661.69;;;20.88;65.20
66689;BME280;53587;59.318;18.084;2023-07-16T05:30:58;100658.78;;;20.93;65.00
66689;BME280;53587;59.318;18.084;2023-07-16T05:33:24;100653.13;;;20.98;65.03
66689;BME280;53587;59.318;18.084;2023-07-16T05:35:49;100645.63;;;20.99;65.03
66689;BME280;53587;59.318;18.084;2023-07-16T05:38:15;100636.38;;;21.03;65.26
66689;BME280;53587;59.318;18.084;2023-07-16T05:40:40;100623.03;;;21.05;65.16
66689;BME280;53587;59.318;18.084;2023-07-16T05:43:05;100619.84;;;20.62;64.54
66689;BME280;53587;59.318;18.084;2023-07-16T05:45:31;100621.78;;;20.10;65.70
66689;BME280;53587;59.318;18.084;2023-07-16T05:47:56;100617.63;;;19.66;66.08
66689;BME280;53587;59.318;18.084;2023-07-16T05:50:21;100622.47;;;19.27;67.42
66689;BME280;53587;59.318;18.084;2023-07-16T05:52:46;100620.59;;;19.56;71.04
66689;BME280;53587;59.318;18.084;2023-07-16T05:55:13;100616.44;;;19.86;69.68
66689;BME280;53587;59.318;18.084;2023-07-16T05:57:38;100619.03;;;20.10;69.44
66689;BME280;53587;59.318;18.084;2023-07-16T06:00:03;100627.50;;;20.28;68.66
66689;BME280;53587;59.318;18.084;2023-07-16T06:02:29;100625.22;;;20.44;68.03
66689;BME280;53587;59.318;18.084;2023-07-16T06:04:55;100636.91;;;20.55;67.40
66689;BME280;53587;59.318;18.084;2023-07-16T06:07:20;100631.97;;;20.66;67.31
66689;BME280;53587;59.318;18.084;2023-07-16T06:09:45;100612.19;;;20.72;67.08
66689;BME280;53587;59.318;18.084;2023-07-16T06:12:10;100610.91;;;20.79;66.68
66689;BME280;53587;59.318;18.084;2023-07-16T06:14:36;100630.69;;;20.86;67.03
66689;BME280;53587;59.318;18.084;2023-07-16T06:17:01;100626.69;;;20.92;66.92
66689;BME280;53587;59.318;18.084;2023-07-16T06:19:26;100615.78;;;20.96;66.73
66689;BME280;53587;59.318;18.084;2023-07-16T06:21:51;100598.53;;;20.99;66.97
66689;BME280;53587;59.318;18.084;2023-07-16T06:24:16;100605.09;;;21.03;66.42
66689;BME280;53587;59.318;18.084;2023-07-16T06:26:42;100607.88;;;21.03;66.38
66689;BME280;53587;59.318;18.084;2023-07-16T06:29:07;100603.56;;;20.60;65.52
66689;BME280;53587;59.318;18.084;2023-07-16T06:31:32;100595.88;;;20.06;66.75
66689;BME280;53587;59.318;18.084;2023-07-16T06:33:58;100594.72;;;19.79;66.86
66689;BME280;53587;59.318;18.084;2023-07-16T06:36:23;100590.38;;;19.45;69.37
66689;BME280;53587;59.318;18.084;2023-07-16T06:38:48;100584.88;;;19.73;71.48
66689;BME280;53587;59.318;18.084;2023-07-16T06:41:14;100584.69;;;19.98;70.60
66689;BME280;53587;59.318;18.084;2023-07-16T06:43:39;100593.41;;;20.19;70.77
66689;BME280;53587;59.318;18.084;2023-07-16T06:46:04;100583.63;;;20.35;70.05
66689;BME280;53587;59.318;18.084;2023-07-16T06:48:29;100582.47;;;20.50;69.44
66689;BME280;53587;59.318;18.084;2023-07-16T06:50:54;100588.09;;;20.59;69.08
66689;BME280;53587;59.318;18.084;2023-07-16T06:53:20;100579.56;;;20.69;68.70
66689;BME280;53587;59.318;18.084;2023-07-16T06:55:47;100578.81;;;20.78;68.00
66689;BME280;53587;59.318;18.084;2023-07-16T06:58:13;100578.41;;;20.84;67.78
66689;BME280;53587;59.318;18.084;2023-07-16T07:00:38;100576.31;;;20.90;67.86
66689;BME280;53587;59.318;18.084;2023-07-16T07:03:04;100580.09;;;20.94;67.68
66689;BME280;53587;59.318;18.084;2023-07-16T07:05:29;100580.28;;;20.98;67.54
66689;BME280;53587;59.318;18.084;2023-07-16T07:07:54;100575.44;;;21.03;67.24
66689;BME280;53587;59.318;18.084;2023-07-16T07:10:19;100574.25;;;20.96;67.59
66689;BME280;53587;59.318;18.084;2023-07-16T07:12:45;100576.63;;;20.52;66.81
66689;BME280;53587;59.318;18.084;2023-07-16T07:15:10;100579.88;;;20.03;66.03
66689;BME280;53587;59.318;18.084;2023-07-16T07:17:35;100598.19;;;19.71;67.22
66689;BME280;53587;59.318;18.084;2023-07-16T07:20:01;100592.44;;;19.54;69.84
66689;BME280;53587;59.318;18.084;2023-07-16T07:22:26;100583.13;;;19.77;71.83
66689;BME280;53587;59.318;18.084;2023-07-16T07:24:51;100569.75;;;19.99;71.38
66689;BME280;53587;59.318;18.084;2023-07-16T07:27:16;100577.31;;;20.21;70.47
66689;BME280;53587;59.318;18.084;2023-07-16T07:29:42;100573.56;;;20.39;70.19
66689;BME280;53587;59.318;18.084;2023-07-16T07:32:07;100567.81;;;20.50;69.74
66689;BME280;53587;59.318;18.084;2023-07-16T07:34:32;100584.19;;;20.60;69.53
66689;BME280;53587;59.318;18.084;2023-07-16T07:36:58;100604.16;;;20.71;68.73
66689;BME280;53587;59.318;18.084;2023-07-16T07:39:23;100626.22;;;20.76;68.75
66689;BME280;53587;59.318;18.084;2023-07-16T07:41:48;100625.47;;;20.84;68.52
66689;BME280;53587;59.318;18.084;2023-07-16T07:44:13;100631.69;;;20.90;68.35
66689;BME280;53587;59.318;18.084;2023-07-16T07:46:38;100629.63;;;20.96;67.96
66689;BME280;53587;59.318;18.084;2023-07-16T07:49:04;100619.88;;;20.98;67.75
66689;BME280;53587;59.318;18.084;2023-07-16T07:51:29;100607.03;;;21.02;67.65
66689;BME280;53587;59.318;18.084;2023-07-16T07:53:54;100589.03;;;20.91;67.48
66689;BME280;53587;59.318;18.084;2023-07-16T07:56:19;100588.38;;;20.35;66.45
66689;BME280;53587;59.318;18.084;2023-07-16T07:58:44;100582.88;;;19.93;66.84
66689;BME280;53587;59.318;18.084;2023-07-16T08:01:10;100586.59;;;19.55;67.17
66689;BME280;53587;59.318;18.084;2023-07-16T08:03:35;100578.00;;;19.57;71.02
66689;BME280;53587;59.318;18.084;2023-07-16T08:06:00;100577.50;;;19.83;71.87
66689;BME280;53587;59.318;18.084;2023-07-16T08:08:26;100565.75;;;20.05;71.46
66689;BME280;53587;59.318;18.084;2023-07-16T08:10:51;100583.88;;;20.25;70.56
66689;BME280;53587;59.318;18.084;2023-07-16T08:13:16;100590.69;;;20.41;70.13
66689;BME280;53587;59.318;18.084;2023-07-16T08:15:41;100603.69;;;20.55;69.57
66689;BME280;53587;59.318;18.084;2023-07-16T08:18:06;100612.88;;;20.64;69.76
66689;BME280;53587;59.318;18.084;2023-07-16T08:20:32;100613.19;;;20.77;69.65
66689;BME280;53587;59.318;18.084;2023-07-16T08:22:57;100619.75;;;20.81;69.04
66689;BME280;53587;59.318;18.084;2023-07-16T08:25:22;100621.25;;;20.87;69.20
66689;BME280;53587;59.318;18.084;2023-07-16T08:27:48;100617.25;;;20.93;68.99
66689;BME280;53587;59.318;18.084;2023-07-16T08:30:13;100608.28;;;20.96;68.82
66689;BME280;53587;59.318;18.084;2023-07-16T08:32:38;100598.22;;;21.00;68.78
66689;BME280;53587;59.318;18.084;2023-07-16T08:35:04;100600.03;;;21.05;68.54
66689;BME280;53587;59.318;18.084;2023-07-16T08:37:29;100589.78;;;20.83;67.80
66689;BME280;53587;59.318;18.084;2023-07-16T08:39:54;100587.53;;;20.34;67.17
66689;BME280;53587;59.318;18.084;2023-07-16T08:42:19;100599.03;;;20.00;67.19
66689;BME280;53587;59.318;18.084;2023-07-16T08:44:46;100617.63;;;19.66;68.21
66689;BME280;53587;59.318;18.084;2023-07-16T08:47:11;100622.03;;;19.67;72.49
66689;BME280;53587;59.318;18.084;2023-07-16T08:49:36;100624.47;;;19.88;73.67
66689;BME280;53587;59.318;18.084;2023-07-16T08:52:04;100621.78;;;20.10;73.17
66689;BME280;53587;59.318;18.084;2023-07-16T08:54:30;100618.09;;;20.29;72.48
66689;BME280;53587;59.318;18.084;2023-07-16T08:56:55;100605.06;;;20.43;71.89
66689;BME280;53587;59.318;18.084;2023-07-16T08:59:20;100596.19;;;20.55;71.44
66689;BME280;53587;59.318;18.084;2023-07-16T09:01:46;100598.75;;;20.66;70.81
66689;BME280;53587;59.318;18.084;2023-07-16T09:04:12;100595.56;;;20.72;70.68
66689;BME280;53587;59.318;18.084;2023-07-16T09:06:37;100601.50;;;20.80;70.68
66689;BME280;53587;59.318;18.084;2023-07-16T09:09:02;100614.88;;;20.86;70.65
66689;BME280;53587;59.318;18.084;2023-07-16T09:11:27;100615.59;;;20.92;70.50
66689;BME280;53587;59.318;18.084;2023-07-16T09:13:53;100621.00;;;20.97;70.26
66689;BME280;53587;59.318;18.084;2023-07-16T09:16:18;100613.69;;;21.01;70.42
66689;BME280;53587;59.318;18.084;2023-07-16T09:18:44;100615.84;;;21.04;70.15
66689;BME280;53587;59.318;18.084;2023-07-16T09:21:10;100615.03;;;20.67;69.79
66689;BME280;53587;59.318;18.084;2023-07-16T09:23:35;100617.69;;;20.22;68.62
66689;BME280;53587;59.318;18.084;2023-07-16T09:26:01;100623.41;;;19.84;68.98
66689;BME280;53587;59.318;18.084;2023-07-16T09:28:29;100623.94;;;19.53;69.14
66689;BME280;53587;59.318;18.084;2023-07-16T09:30:55;100628.06;;;19.69;74.54
66689;BME280;53587;59.318;18.084;2023-07-16T09:33:20;100636.00;;;19.90;75.94
66689;BME280;53587;59.318;18.084;2023-07-16T09:35:47;100647.28;;;20.07;75.93
66689;BME280;53587;59.318;18.084;2023-07-16T09:38:13;100648.00;;;20.27;74.90
66689;BME280;53587;59.318;18.084;2023-07-16T09:40:39;100632.22;;;20.41;74.89
66689;BME280;53587;59.318;18.084;2023-07-16T09:43:07;100617.00;;;20.53;74.47
66689;BME280;53587;59.318;18.084;2023-07-16T09:45:33;100600.19;;;20.63;74.06
66689;BME280;53587;59.318;18.084;2023-07-16T09:47:58;100630.75;;;20.72;73.78
66689;BME280;53587;59.318;18.084;2023-07-16T09:50:23;100697.28;;;20.81;74.08
66689;BME280;53587;59.318;18.084;2023-07-16T09:52:50;100719.94;;;20.83;73.83
66689;BME280;53587;59.318;18.084;2023-07-16T09:55:16;100715.91;;;20.89;74.29
66689;BME280;53587;59.318;18.084;2023-07-16T09:57:41;100690.69;;;20.90;74.25
66689;BME280;53587;59.318;18.084;2023-07-16T10:00:11;100713.53;;;20.96;73.88
66689;BME280;53587;59.318;18.084;2023-07-16T10:02:37;100727.28;;;21.01;74.46
66689;BME280;53587;59.318;18.084;2023-07-16T10:05:18;100738.56;;;21.05;74.34
66689;BME280;53587;59.318;18.084;2023-07-16T10:07:54;100742.66;;;21.07;74.42
66689;BME280;53587;59.318;18.084;2023-07-16T10:10:20;100735.31;;;20.61;72.32
66689;BME280;53587;59.318;18.084;2023-07-16T10:12:56;100735.78;;;20.07;72.09
66689;BME280;53587;59.318;18.084;2023-07-16T10:15:30;100718.56;;;19.63;72.99
66689;BME280;53587;59.318;18.084;2023-07-16T10:17:56;100702.59;;;19.27;73.87
66689;BME280;53587;59.318;18.084;2023-07-16T10:20:35;100729.50;;;19.55;78.98
66689;BME280;53587;59.318;18.084;2023-07-16T10:23:11;100723.00;;;19.78;81.11
66689;BME280;53587;59.318;18.084;2023-07-16T10:25:39;100733.75;;;19.99;80.87
66689;BME280;53587;59.318;18.084;2023-07-16T10:28:05;100723.44;;;20.19;80.51
66689;BME280;53587;59.318;18.084;2023-07-16T10:30:30;100710.13;;;20.35;80.07
66689;BME280;53587;59.318;18.084;2023-07-16T10:32:55;100682.44;;;20.49;79.89
66689;BME280;53587;59.318;18.084;2023-07-16T10:35:21;100665.28;;;20.60;80.01
66689;BME280;53587;59.318;18.084;2023-07-16T10:37:46;100668.16;;;20.69;79.33
66689;BME280;53587;59.318;18.084;2023-07-16T10:40:11;100659.97;;;20.78;79.10
66689;BME280;53587;59.318;18.084;2023-07-16T10:42:39;100637.38;;;20.85;78.99
66689;BME280;53587;59.318;18.084;2023-07-16T10:45:05;100649.97;;;20.91;78.66
66689;BME280;53587;59.318;18.084;2023-07-16T10:47:31;100645.44;;;20.95;78.72
66689;BME280;53587;59.318;18.084;2023-07-16T10:49:57;100661.94;;;21.00;79.05
66689;BME280;53587;59.318;18.084;2023-07-16T10:52:22;100691.78;;;21.03;78.25
66689;BME280;53587;59.318;18.084;2023-07-16T10:54:48;100705.94;;;21.02;78.09
66689;BME280;53587;59.318;18.084;2023-07-16T10:57:15;100703.66;;;20.53;75.17
66689;BME280;53587;59.318;18.084;2023-07-16T10:59:41;100743.50;;;20.10;74.40
66689;BME280;53587;59.318;18.084;2023-07-16T11:02:11;100748.44;;;19.81;73.48
66689;BME280;53587;59.318;18.084;2023-07-16T11:04:36;100755.31;;;19.64;75.60
66689;BME280;53587;59.318;18.084;2023-07-16T11:07:05;100732.34;;;19.83;80.08
66689;BME280;53587;59.318;18.084;2023-07-16T11:09:31;100742.06;;;19.99;82.53
66689;BME280;53587;59.318;18.084;2023-07-16T11:12:04;100748.41;;;20.14;82.91
66689;BME280;53587;59.318;18.084;2023-07-16T11:14:30;100743.72;;;20.28;83.72
66689;BME280;53587;59.318;18.084;2023-07-16T11:16:55;100741.47;;;20.44;83.26
66689;BME280;53587;59.318;18.084;2023-07-16T11:19:28;100720.75;;;20.55;83.09
66689;BME280;53587;59.318;18.084;2023-07-16T11:21:55;100730.81;;;20.65;82.34
66689;BME280;53587;59.318;18.084;2023-07-16T11:24:21;100721.81;;;20.73;82.67
66689;BME280;53587;59.318;18.084;2023-07-16T11:26:50;100693.38;;;20.82;82.19
66689;BME280;53587;59.318;18.084;2023-07-16T11:29:15;100673.88;;;20.87;81.71
66689;BME280;53587;59.318;18.084;2023-07-16T11:31:41;100725.25;;;20.93;81.41
66689;BME280;53587;59.318;18.084;2023-07-16T11:34:12;100746.19;;;20.99;81.27
66689;BME280;53587;59.318;18.084;2023-07-16T11:36:38;100762.16;;;21.02;80.97
66689;BME280;53587;59.318;18.084;2023-07-16T11:39:03;100773.75;;;21.04;80.61
66689;BME280;53587;59.318;18.084;2023-07-16T11:41:29;100768.34;;;20.71;78.57
66689;BME280;53587;59.318;18.084;2023-07-16T11:43:54;100755.81;;;20.32;76.04
66689;BME280;53587;59.318;18.084;2023-07-16T11:46:24;100763.56;;;20.02;73.94
66689;BME280;53587;59.318;18.084;2023-07-16T11:48:49;100762.31;;;19.75;75.42
66689;BME280;53587;59.318;18.084;2023-07-16T11:51:14;100762.91;;;19.91;80.10
66689;BME280;53587;59.318;18.084;2023-07-16T11:53:39;100770.13;;;20.06;82.00
66689;BME280;53587;59.318;18.084;2023-07-16T11:56:04;100763.78;;;20.20;82.65
66689;BME280;53587;59.318;18.084;2023-07-16T11:58:30;100762.97;;;20.33;83.50
66689;BME280;53587;59.318;18.084;2023-07-16T12:00:55;100762.81;;;20.43;83.89
66689;BME280;53587;59.318;18.084;2023-07-16T12:03:20;100776.13;;;20.55;83.75
66689;BME280;53587;59.318;18.084;2023-07-16T12:05:46;100770.69;;;20.64;83.41
66689;BME280;53587;59.318;18.084;2023-07-16T12:08:11;100770.00;;;20.72;83.98
66689;BME280;53587;59.318;18.084;2023-07-16T12:10:39;100773.69;;;20.82;83.59
66689;BME280;53587;59.318;18.084;2023-07-16T12:13:05;100779.63;;;20.89;82.97
66689;BME280;53587;59.318;18.084;2023-07-16T12:15:30;100776.75;;;20.94;82.63
66689;BME280;53587;59.318;18.084;2023-07-16T12:17:55;100774.69;;;21.00;82.37
66689;BME280;53587;59.318;18.084;2023-07-16T12:20:20;100780.44;;;21.03;82.05
66689;BME280;53587;59.318;18.084;2023-07-16T12:22:45;100778.59;;;20.85;80.44
66689;BME280;53587;59.318;18.084;2023-07-16T12:25:11;100777.34;;;20.49;78.39
66689;BME280;53587;59.318;18.084;2023-07-16T12:27:36;100769.94;;;20.17;75.61
66689;BME280;53587;59.318;18.084;2023-07-16T12:30:01;100781.25;;;19.87;75.16
66689;BME280;53587;59.318;18.084;2023-07-16T12:32:26;100787.50;;;19.93;79.11
66689;BME280;53587;59.318;18.084;2023-07-16T12:34:52;100779.56;;;20.05;81.74